createdAt,value
2023-04-09T00:01:49.317Z,4.80
2023-04-09T00:04:17.277Z,4.50
2023-04-09T00:06:46.540Z,4.20
2023-04-09T00:09:14.358Z,4.33
2023-04-09T00:11:42.170Z,4.63
2023-04-09T00:14:09.929Z,4.50
2023-04-09T00:16:37.818Z,3.97
2023-04-09T00:19:06.030Z,4.40
2023-04-09T00:21:33.804Z,4.20
2023-04-09T00:24:02.991Z,4.13
2023-04-09T00:26:31.184Z,4.17
2023-04-09T00:28:59.037Z,4.17
2023-04-09T00:31:26.878Z,3.93
2023-04-09T00:33:54.798Z,4.03
2023-04-09T00:36:25.897Z,3.50
2023-04-09T00:38:54.955Z,3.50
2023-04-09T00:41:24.261Z,3.60
2023-04-09T00:43:52.109Z,3.70
2023-04-09T00:46:20.046Z,3.50
2023-04-09T00:48:47.892Z,3.50
2023-04-09T00:51:15.710Z,3.50
2023-04-09T00:53:44.014Z,3.60
2023-04-09T00:56:12.504Z,3.50
2023-04-09T00:58:42.948Z,3.23
2023-04-09T01:01:12.873Z,3.23
2023-04-09T01:03:41.107Z,3.60
2023-04-09T01:06:11.571Z,3.50
2023-04-09T01:08:42.055Z,3.20
2023-04-09T01:11:13.967Z,3.50
2023-04-09T01:13:47.881Z,3.30
2023-04-09T01:16:17.039Z,3.20
2023-04-09T01:18:46.047Z,3.40
2023-04-09T01:21:15.664Z,3.50
2023-04-09T01:23:48.326Z,3.67
2023-04-09T01:26:20.379Z,3.90
2023-04-09T01:28:52.024Z,3.60
2023-04-09T01:31:21.270Z,3.10
2023-04-09T01:33:49.142Z,3.40
2023-04-09T01:36:17.523Z,3.10
2023-04-09T01:38:46.646Z,3.27
2023-04-09T01:41:16.357Z,3.30
2023-04-09T01:43:45.139Z,3.17
2023-04-09T01:46:14.709Z,3.57
2023-04-09T01:48:42.938Z,3.50
2023-04-09T01:51:10.801Z,3.40
2023-04-09T01:53:38.584Z,3.60
2023-04-09T01:56:06.734Z,3.40
2023-04-09T01:58:35.275Z,3.60
2023-04-09T02:01:05.256Z,3.57
2023-04-09T02:03:35.465Z,3.40
2023-04-09T02:06:07.014Z,3.33
2023-04-09T02:08:35.806Z,3.30
2023-04-09T02:11:05.616Z,3.13
2023-04-09T02:13:34.842Z,3.90
2023-04-09T02:16:03.000Z,3.40
2023-04-09T02:18:35.510Z,3.53
2023-04-09T02:21:05.796Z,3.63
2023-04-09T02:23:33.804Z,3.40
2023-04-09T02:26:01.644Z,3.40
2023-04-09T02:28:29.651Z,3.50
2023-04-09T02:30:57.516Z,3.20
2023-04-09T02:33:25.520Z,3.17
2023-04-09T02:35:53.353Z,3.33
2023-04-09T02:38:22.853Z,3.33
2023-04-09T02:40:50.657Z,3.23
2023-04-09T02:43:18.476Z,3.27
2023-04-09T02:45:49.012Z,3.10
2023-04-09T02:48:16.861Z,3.03
2023-04-09T02:50:44.642Z,2.90
2023-04-09T02:53:23.472Z,2.80
2023-04-09T02:55:51.286Z,2.90
2023-04-09T02:58:19.073Z,2.90
2023-04-09T03:00:46.896Z,2.83
2023-04-09T03:03:14.901Z,2.70
2023-04-09T03:05:42.763Z,2.80
2023-04-09T03:08:10.600Z,2.80
2023-04-09T03:10:39.830Z,3.13
2023-04-09T03:13:07.638Z,3.20
2023-04-09T03:15:35.503Z,3.00
2023-04-09T03:18:03.334Z,3.07
2023-04-09T03:20:31.171Z,2.90
2023-04-09T03:22:58.997Z,3.20
2023-04-09T03:25:26.904Z,3.07
2023-04-09T03:27:56.167Z,2.77
2023-04-09T03:30:24.005Z,3.00
2023-04-09T03:32:51.874Z,2.77
2023-04-09T03:35:19.737Z,2.73
2023-04-09T03:37:47.672Z,3.00
2023-04-09T03:40:15.532Z,2.77
2023-04-09T03:42:43.895Z,2.57
2023-04-09T03:45:13.214Z,2.67
2023-04-09T03:47:41.103Z,2.50
2023-04-09T03:50:09.268Z,3.00
2023-04-09T03:52:37.081Z,2.60
2023-04-09T03:55:04.972Z,2.40
2023-04-09T03:57:32.854Z,2.23
2023-04-09T04:00:00.680Z,2.53
2023-04-09T04:02:33.910Z,2.43
2023-04-09T04:05:01.840Z,2.50
2023-04-09T04:07:29.594Z,2.50
2023-04-09T04:09:57.496Z,2.10
2023-04-09T04:12:25.430Z,2.60
2023-04-09T04:14:53.284Z,2.30
2023-04-09T04:17:21.266Z,2.43
2023-04-09T04:19:50.525Z,2.57
2023-04-09T04:22:18.301Z,2.50
2023-04-09T04:24:46.119Z,2.50
2023-04-09T04:27:13.919Z,2.50
2023-04-09T04:29:41.723Z,2.40
2023-04-09T04:32:09.561Z,2.50
2023-04-09T04:34:37.409Z,2.50
2023-04-09T04:37:06.602Z,2.10
2023-04-09T04:39:34.782Z,2.30
2023-04-09T04:42:02.605Z,2.13
2023-04-09T04:44:30.472Z,2.40
2023-04-09T04:46:58.293Z,2.10
2023-04-09T04:49:26.104Z,1.87
2023-04-09T04:51:53.806Z,2.10
2023-04-09T04:54:22.999Z,2.30
2023-04-09T04:56:50.847Z,2.17
2023-04-09T04:59:18.646Z,1.90
2023-04-09T05:01:46.483Z,1.87
2023-04-09T05:04:14.370Z,2.20
2023-04-09T05:06:42.214Z,2.10
2023-04-09T05:09:10.024Z,1.90
2023-04-09T05:11:39.328Z,1.93
2023-04-09T05:14:13.278Z,1.90
2023-04-09T05:16:41.105Z,2.00
2023-04-09T05:19:13.657Z,2.10
2023-04-09T05:21:41.464Z,1.90
2023-04-09T05:24:13.222Z,2.00
2023-04-09T05:26:42.433Z,2.10
2023-04-09T05:29:14.638Z,2.10
2023-04-09T05:31:43.216Z,1.90
2023-04-09T05:34:11.363Z,2.10
2023-04-09T05:36:39.164Z,1.90
2023-04-09T05:39:09.896Z,1.60
2023-04-09T05:41:38.832Z,1.67
2023-04-09T05:44:08.217Z,1.60
2023-04-09T05:46:42.169Z,1.50
2023-04-09T05:49:14.186Z,1.60
2023-04-09T05:51:43.312Z,1.60
2023-04-09T05:54:11.422Z,1.43
2023-04-09T05:56:39.263Z,1.53
2023-04-09T05:59:08.678Z,1.80
2023-04-09T06:01:36.772Z,1.70
2023-04-09T06:04:05.023Z,1.60
2023-04-09T06:06:33.181Z,1.80
2023-04-09T06:09:01.023Z,1.80
2023-04-09T06:11:28.834Z,1.80
2023-04-09T06:13:56.702Z,1.70
2023-04-09T06:16:26.432Z,1.70
2023-04-09T06:18:55.061Z,1.80
2023-04-09T06:21:23.056Z,1.70
2023-04-09T06:23:51.835Z,1.60
2023-04-09T06:26:19.900Z,1.70
2023-04-09T06:28:47.722Z,1.50
2023-04-09T06:31:15.701Z,1.80
2023-04-09T06:33:44.928Z,1.90
2023-04-09T06:36:12.769Z,1.57
2023-04-09T06:38:40.682Z,1.90
2023-04-09T06:41:09.204Z,1.63
2023-04-09T06:43:37.575Z,1.50
2023-04-09T06:46:05.420Z,1.60
2023-04-09T06:48:33.268Z,1.60
2023-04-09T06:51:02.511Z,1.70
2023-04-09T06:53:30.786Z,1.70
2023-04-09T06:55:58.595Z,1.60
2023-04-09T06:58:26.461Z,1.70
2023-04-09T07:00:56.881Z,1.67
2023-04-09T07:03:29.413Z,1.90
2023-04-09T07:06:03.286Z,1.70
2023-04-09T07:08:34.572Z,1.20
2023-04-09T07:11:03.484Z,1.70
2023-04-09T07:13:31.381Z,1.63
2023-04-09T07:15:59.258Z,1.80
2023-04-09T07:18:27.085Z,1.70
2023-04-09T07:20:55.357Z,1.60
2023-04-09T07:23:30.066Z,1.50
2023-04-09T07:25:57.885Z,1.60
2023-04-09T07:28:30.749Z,1.60
2023-04-09T07:31:02.897Z,1.43
2023-04-09T07:33:30.833Z,1.60
2023-04-09T07:35:58.724Z,1.60
2023-04-09T07:38:26.547Z,1.37
2023-04-09T07:41:01.452Z,1.77
2023-04-09T07:43:29.344Z,1.80
2023-04-09T07:45:57.265Z,1.70
2023-04-09T07:48:29.072Z,1.77
2023-04-09T07:50:56.872Z,1.73
2023-04-09T07:53:24.954Z,1.70
2023-04-09T07:55:53.055Z,1.60
2023-04-09T07:58:22.373Z,1.60
2023-04-09T08:00:50.204Z,1.60
2023-04-09T08:03:19.313Z,1.63
2023-04-09T08:05:47.469Z,1.60
2023-04-09T08:08:15.528Z,1.47
2023-04-09T08:10:43.352Z,1.50
2023-04-09T08:13:12.101Z,1.70
2023-04-09T08:15:41.639Z,1.60
2023-04-09T08:18:09.515Z,1.80
2023-04-09T08:20:45.494Z,1.80
2023-04-09T08:23:19.492Z,1.90
2023-04-09T08:25:47.437Z,1.80
2023-04-09T08:28:15.243Z,1.80
2023-04-09T08:30:44.759Z,2.03
2023-04-09T08:33:12.598Z,2.17
2023-04-09T08:35:41.560Z,2.10
2023-04-09T08:38:09.412Z,2.17
2023-04-09T08:40:37.553Z,2.00
2023-04-09T08:43:06.375Z,2.00
2023-04-09T08:45:34.344Z,2.00
2023-04-09T08:48:04.332Z,2.07
2023-04-09T08:50:32.573Z,1.80
2023-04-09T08:53:04.837Z,2.00
2023-04-09T08:55:34.648Z,1.80
2023-04-09T08:58:05.678Z,2.10
2023-04-09T09:00:33.495Z,2.10
2023-04-09T09:03:07.256Z,2.03
2023-04-09T09:05:39.088Z,2.00
2023-04-09T09:08:08.100Z,1.93
2023-04-09T09:10:39.933Z,1.90
2023-04-09T09:13:22.481Z,2.17
2023-04-09T09:15:54.189Z,2.00
2023-04-09T09:18:39.589Z,2.10
2023-04-09T09:21:19.535Z,2.30
2023-04-09T09:23:53.040Z,2.17
2023-04-09T09:26:30.823Z,2.07
2023-04-09T09:28:59.567Z,2.20
2023-04-09T09:31:27.613Z,2.30
2023-04-09T09:33:56.949Z,2.20
2023-04-09T09:36:42.457Z,2.40
2023-04-09T09:39:12.360Z,2.30
2023-04-09T09:41:40.177Z,2.30
2023-04-09T09:44:08.741Z,2.40
2023-04-09T09:46:37.238Z,2.50
2023-04-09T09:49:07.150Z,2.57
2023-04-09T09:51:38.869Z,2.50
2023-04-09T09:54:08.279Z,2.70
2023-04-09T09:56:37.213Z,2.43
2023-04-09T09:59:08.827Z,2.63
2023-04-09T10:01:37.314Z,2.40
2023-04-09T10:04:07.526Z,2.33
2023-04-09T10:06:35.795Z,2.60
2023-04-09T10:09:06.461Z,2.80
2023-04-09T10:11:34.858Z,2.70
2023-04-09T10:14:03.258Z,2.73
2023-04-09T10:16:31.429Z,2.50
2023-04-09T10:19:00.501Z,2.80
2023-04-09T10:21:34.281Z,2.80
2023-04-09T10:24:18.520Z,2.90
2023-04-09T10:26:46.976Z,2.90
2023-04-09T10:29:15.434Z,2.43
2023-04-09T10:31:50.759Z,2.87
2023-04-09T10:34:19.190Z,2.90
2023-04-09T10:36:51.670Z,2.80
2023-04-09T10:39:19.779Z,2.70
2023-04-09T10:41:48.909Z,2.70
2023-04-09T10:44:23.062Z,2.80
2023-04-09T10:46:51.474Z,2.50
2023-04-09T10:49:20.393Z,2.40
2023-04-09T10:51:56.185Z,2.20
2023-04-09T10:54:47.178Z,1.90
2023-04-09T10:57:16.617Z,1.90
2023-04-09T10:59:46.068Z,1.90
2023-04-09T11:02:31.983Z,1.73
2023-04-09T11:05:07.328Z,1.90
2023-04-09T11:07:40.538Z,1.90
2023-04-09T11:10:08.973Z,1.90
2023-04-09T11:12:36.894Z,2.00
2023-04-09T11:15:04.854Z,1.67
2023-04-09T11:17:37.205Z,1.80
2023-04-09T11:20:05.335Z,1.60
2023-04-09T11:22:33.147Z,1.90
2023-04-09T11:25:02.396Z,1.90
2023-04-09T11:27:30.210Z,1.47
2023-04-09T11:29:58.393Z,1.50
2023-04-09T11:32:36.551Z,1.40
2023-04-09T11:35:05.085Z,1.40
2023-04-09T11:37:32.936Z,1.40
2023-04-09T11:40:02.185Z,1.40
2023-04-09T11:42:32.430Z,1.33
2023-04-09T11:45:01.015Z,1.30
2023-04-09T11:47:29.075Z,1.40
2023-04-09T11:49:59.958Z,1.50
2023-04-09T11:52:35.236Z,1.43
2023-04-09T11:55:04.746Z,1.43
2023-04-09T11:57:40.476Z,1.20
2023-04-09T12:00:09.832Z,1.50
2023-04-09T12:02:46.595Z,1.30
2023-04-09T12:05:21.726Z,1.57
2023-04-09T12:07:56.397Z,1.50
2023-04-09T12:10:29.143Z,1.47
2023-04-09T12:12:57.022Z,1.50
2023-04-09T12:15:25.484Z,1.33
2023-04-09T12:17:55.095Z,1.40
2023-04-09T12:20:33.011Z,1.43
2023-04-09T12:23:03.024Z,1.60
2023-04-09T12:25:32.554Z,1.50
2023-04-09T12:28:00.553Z,1.60
2023-04-09T12:30:28.743Z,1.50
2023-04-09T12:32:57.012Z,1.40
2023-04-09T12:35:24.956Z,1.67
2023-04-09T12:37:52.863Z,1.40
2023-04-09T12:40:21.100Z,1.40
2023-04-09T12:42:50.396Z,1.30
2023-04-09T12:45:19.227Z,1.40
2023-04-09T12:47:47.211Z,1.40
2023-04-09T12:50:16.274Z,1.70
2023-04-09T12:52:44.588Z,1.40
2023-04-09T12:55:13.083Z,1.50
2023-04-09T12:57:41.320Z,1.43
2023-04-09T13:00:11.188Z,1.40
2023-04-09T13:02:44.468Z,1.40
2023-04-09T13:05:12.417Z,1.50
2023-04-09T13:07:42.720Z,1.20
2023-04-09T13:10:11.284Z,1.30
2023-04-09T13:12:39.042Z,1.30
2023-04-09T13:15:11.909Z,1.20
2023-04-09T13:17:39.739Z,1.40
2023-04-09T13:20:10.721Z,1.50
2023-04-09T13:22:41.386Z,1.57
2023-04-09T13:25:09.443Z,1.50
2023-04-09T13:27:37.220Z,1.50
2023-04-09T13:30:05.599Z,1.60
2023-04-09T13:32:34.801Z,1.50
2023-04-09T13:35:02.590Z,1.30
2023-04-09T13:37:30.556Z,1.20
2023-04-09T13:39:58.324Z,1.23
2023-04-09T13:42:26.184Z,1.30
2023-04-09T13:44:53.955Z,1.30
2023-04-09T13:47:21.902Z,1.40
2023-04-09T13:49:53.129Z,1.37
2023-04-09T13:52:20.902Z,1.40
2023-04-09T13:54:49.586Z,1.50
2023-04-09T13:57:17.906Z,1.60
2023-04-09T13:59:45.657Z,1.50
2023-04-09T14:02:13.542Z,1.50
2023-04-09T14:04:41.628Z,1.50
2023-04-09T14:07:10.807Z,1.60
2023-04-09T14:09:38.493Z,1.60
2023-04-09T14:12:06.503Z,1.60
2023-04-09T14:14:34.272Z,1.60
2023-04-09T14:17:03.260Z,1.60
2023-04-09T14:19:30.938Z,1.60
2023-04-09T14:21:58.686Z,1.50
2023-04-09T14:24:27.811Z,1.50
2023-04-09T14:26:55.608Z,1.40
2023-04-09T14:29:23.302Z,1.33
2023-04-09T14:31:51.840Z,1.30
2023-04-09T14:34:19.547Z,1.40
2023-04-09T14:36:47.345Z,1.50
2023-04-09T14:39:15.062Z,1.40
2023-04-09T14:41:44.168Z,1.40
2023-04-09T14:44:11.871Z,1.50
2023-04-09T14:46:39.630Z,1.30
2023-04-09T14:49:07.466Z,1.40
2023-04-09T14:51:35.171Z,1.30
2023-04-09T14:54:02.906Z,1.40
2023-04-09T14:56:30.674Z,1.33
2023-04-09T14:59:00.008Z,1.40
2023-04-09T15:01:28.156Z,1.40
2023-04-09T15:03:56.074Z,1.50
2023-04-09T15:06:23.860Z,1.40
2023-04-09T15:08:51.911Z,1.40
2023-04-09T15:11:20.453Z,1.50
2023-04-09T15:13:48.179Z,1.40
2023-04-09T15:16:25.970Z,1.40
2023-04-09T15:18:55.853Z,1.40
2023-04-09T15:21:24.052Z,1.30
2023-04-09T15:23:52.327Z,1.40
2023-04-09T15:26:20.189Z,1.30
2023-04-09T15:28:47.945Z,1.43
2023-04-09T15:31:15.729Z,1.40
2023-04-09T15:33:45.578Z,1.33
2023-04-09T15:36:13.394Z,1.50
2023-04-09T15:38:41.147Z,1.40
2023-04-09T15:41:08.904Z,1.43
2023-04-09T15:43:36.672Z,1.40
2023-04-09T15:46:08.397Z,1.50
2023-04-09T15:48:36.261Z,1.40
2023-04-09T15:51:05.950Z,1.40
2023-04-09T15:53:33.705Z,1.50
2023-04-09T15:56:01.463Z,1.40
2023-04-09T15:58:29.209Z,1.20
2023-04-09T16:00:57.035Z,1.17
2023-04-09T16:03:24.862Z,1.30
2023-04-09T16:05:52.598Z,1.40
2023-04-09T16:08:21.834Z,1.40
2023-04-09T16:10:49.556Z,1.40
2023-04-09T16:13:17.271Z,1.30
2023-04-09T16:15:46.794Z,1.40
2023-04-09T16:18:14.600Z,1.40
2023-04-09T16:20:42.360Z,1.40
2023-04-09T16:23:10.116Z,1.40
2023-04-09T16:25:39.274Z,1.40
2023-04-09T16:28:07.025Z,1.30
2023-04-09T16:30:34.786Z,1.30
2023-04-09T16:33:02.671Z,1.20
2023-04-09T16:35:30.603Z,1.40
2023-04-09T16:37:58.541Z,1.40
2023-04-09T16:40:26.323Z,1.30
2023-04-09T16:42:55.477Z,1.30
2023-04-09T16:45:23.332Z,1.30
2023-04-09T16:47:54.024Z,1.30
2023-04-09T16:50:22.000Z,1.30
2023-04-09T16:52:49.756Z,1.40
2023-04-09T16:55:17.472Z,1.30
2023-04-09T16:57:45.208Z,1.30
2023-04-09T17:00:17.455Z,1.30
2023-04-09T17:02:45.985Z,1.30
2023-04-09T17:05:13.983Z,1.30
2023-04-09T17:07:41.753Z,1.30
2023-04-09T17:10:10.040Z,1.40
2023-04-09T17:12:38.194Z,1.30
2023-04-09T17:15:06.275Z,1.33
2023-04-09T17:17:35.859Z,1.40
2023-04-09T17:20:04.548Z,1.20
2023-04-09T17:22:32.345Z,1.27
2023-04-09T17:25:00.092Z,1.20
2023-04-09T17:27:27.905Z,1.30
2023-04-09T17:29:55.729Z,1.20
2023-04-09T17:32:23.564Z,1.27
2023-04-09T17:34:52.837Z,1.30
2023-04-09T17:37:20.725Z,1.20
2023-04-09T17:39:48.461Z,1.10
2023-04-09T17:42:16.554Z,1.20
2023-04-09T17:44:44.368Z,1.30
2023-04-09T17:47:12.517Z,1.30
2023-04-09T17:49:40.634Z,1.30
2023-04-09T17:52:09.778Z,1.30
2023-04-09T17:54:38.747Z,1.20
2023-04-09T17:57:07.305Z,1.10
2023-04-09T17:59:35.256Z,1.10
2023-04-09T18:02:03.830Z,1.00
2023-04-09T18:04:32.280Z,1.10
2023-04-09T18:07:00.102Z,1.10
2023-04-09T18:09:35.417Z,1.20
2023-04-09T18:12:03.198Z,1.20
2023-04-09T18:14:32.582Z,1.30
2023-04-09T18:17:01.239Z,1.30
2023-04-09T18:19:29.034Z,1.40
2023-04-09T18:21:56.776Z,1.50
2023-04-09T18:24:26.319Z,1.60
2023-04-09T18:26:55.443Z,1.90
2023-04-09T18:29:23.169Z,1.90
2023-04-09T18:31:50.977Z,2.23
2023-04-09T18:34:20.571Z,2.50
2023-04-09T18:36:50.261Z,2.60
2023-04-09T18:39:19.651Z,2.70
2023-04-09T18:41:47.410Z,2.67
2023-04-09T18:44:16.648Z,2.90
2023-04-09T18:46:44.496Z,2.60
2023-04-09T18:49:12.346Z,2.83
2023-04-09T18:51:40.113Z,2.90
2023-04-09T18:54:07.883Z,2.70
2023-04-09T18:56:36.567Z,2.60
2023-04-09T18:59:04.374Z,2.60
2023-04-09T19:01:33.571Z,2.70
2023-04-09T19:04:01.632Z,2.87
2023-04-09T19:06:30.048Z,2.90
2023-04-09T19:08:59.068Z,2.93
2023-04-09T19:11:27.120Z,2.80
2023-04-09T19:13:54.977Z,2.90
2023-04-09T19:16:22.938Z,2.97
2023-04-09T19:18:52.474Z,2.97
2023-04-09T19:21:20.531Z,2.80
2023-04-09T19:23:57.638Z,2.60
2023-04-09T19:26:26.670Z,2.07
2023-04-09T19:28:54.710Z,2.20
2023-04-09T19:31:23.516Z,2.13
2023-04-09T19:33:52.912Z,2.40
2023-04-09T19:36:20.954Z,2.20
2023-04-09T19:38:48.795Z,2.27
2023-04-09T19:41:16.688Z,2.10
2023-04-09T19:43:46.815Z,2.40
2023-04-09T19:46:14.867Z,2.33
2023-04-09T19:48:42.650Z,2.10
2023-04-09T19:51:16.457Z,2.00
2023-04-09T19:53:46.086Z,2.10
2023-04-09T19:56:15.053Z,2.00
2023-04-09T19:58:42.823Z,2.03
2023-04-09T20:01:10.859Z,1.90
2023-04-09T20:03:38.809Z,1.90
2023-04-09T20:06:10.006Z,1.80
2023-04-09T20:08:39.241Z,1.90
2023-04-09T20:11:07.188Z,1.97
2023-04-09T20:13:34.999Z,1.80
2023-04-09T20:16:03.081Z,1.90
2023-04-09T20:18:31.535Z,1.83
2023-04-09T20:20:59.334Z,1.93
2023-04-09T20:23:27.185Z,2.00
2023-04-09T20:25:56.422Z,1.80
2023-04-09T20:28:24.213Z,2.00
2023-04-09T20:30:52.126Z,1.90
2023-04-09T20:33:19.997Z,1.80
2023-04-09T20:35:48.345Z,1.80
2023-04-09T20:38:16.108Z,1.80
2023-04-09T20:40:43.846Z,1.67
2023-04-09T20:43:13.022Z,1.77
2023-04-09T20:45:40.781Z,1.63
2023-04-09T20:48:08.724Z,1.70
2023-04-09T20:50:36.854Z,1.70
2023-04-09T20:53:04.698Z,1.70
2023-04-09T20:55:32.419Z,1.70
2023-04-09T20:58:00.315Z,1.60
2023-04-09T21:00:29.872Z,1.67
2023-04-09T21:02:57.696Z,1.70
2023-04-09T21:05:25.627Z,1.70
2023-04-09T21:07:53.550Z,1.70
2023-04-09T21:10:21.374Z,1.80
2023-04-09T21:12:49.239Z,1.70
2023-04-09T21:15:20.057Z,1.90
2023-04-09T21:17:49.227Z,1.80
2023-04-09T21:20:17.066Z,1.60
2023-04-09T21:22:44.830Z,1.60
2023-04-09T21:25:15.110Z,1.60
2023-04-09T21:27:43.212Z,1.80
2023-04-09T21:30:11.203Z,1.60
2023-04-09T21:32:39.066Z,1.67
2023-04-09T21:35:08.825Z,1.70
2023-04-09T21:37:37.566Z,1.63
2023-04-09T21:40:05.813Z,1.70
2023-04-09T21:42:33.937Z,1.60
2023-04-09T21:45:02.233Z,1.60
2023-04-09T21:47:30.046Z,1.50
2023-04-09T21:49:57.823Z,1.70
2023-04-09T21:52:27.233Z,1.60
2023-04-09T21:54:54.941Z,1.50
2023-04-09T21:57:22.737Z,1.50
2023-04-09T21:59:50.459Z,1.60
2023-04-09T22:02:19.106Z,1.50
2023-04-09T22:04:47.015Z,1.50
2023-04-09T22:07:14.825Z,1.50
2023-04-09T22:09:44.000Z,1.40
2023-04-09T22:12:11.761Z,1.57
2023-04-09T22:14:41.662Z,1.70
2023-04-09T22:17:09.725Z,1.47
2023-04-09T22:19:37.497Z,1.57
2023-04-09T22:22:05.222Z,1.50
2023-04-09T22:24:33.945Z,1.50
2023-04-09T22:27:03.108Z,1.50
2023-04-09T22:29:31.381Z,1.40
2023-04-09T22:31:59.162Z,1.30
2023-04-09T22:34:27.272Z,1.47
2023-04-09T22:36:55.051Z,1.43
2023-04-09T22:39:22.914Z,1.50
2023-04-09T22:41:50.665Z,1.30
2023-04-09T22:44:19.863Z,1.60
2023-04-09T22:46:47.677Z,1.50
2023-04-09T22:49:15.895Z,1.50
2023-04-09T22:51:43.773Z,1.60
2023-04-09T22:54:14.540Z,1.40
2023-04-09T22:56:43.239Z,1.40
2023-04-09T22:59:10.949Z,1.47
2023-04-09T23:01:40.277Z,1.50
2023-04-09T23:04:08.100Z,1.30
2023-04-09T23:06:36.072Z,1.47
2023-04-09T23:09:03.872Z,1.27
2023-04-09T23:11:31.742Z,1.50
2023-04-09T23:13:59.442Z,1.60
2023-04-09T23:16:27.230Z,1.50
2023-04-09T23:18:56.590Z,1.40
2023-04-09T23:21:24.550Z,1.40
2023-04-09T23:23:52.531Z,1.20
2023-04-09T23:26:20.803Z,1.30
2023-04-09T23:28:48.517Z,1.17
2023-04-09T23:31:16.300Z,1.33
2023-04-09T23:33:44.071Z,1.30
2023-04-09T23:36:13.240Z,1.40
2023-04-09T23:38:43.775Z,1.50
2023-04-09T23:41:11.466Z,1.60
2023-04-09T23:43:39.249Z,1.50
2023-04-09T23:46:07.009Z,1.40
2023-04-09T23:48:34.743Z,1.77
2023-04-09T23:51:02.506Z,1.70
2023-04-09T23:53:31.618Z,1.70
2023-04-09T23:55:59.660Z,1.70
2023-04-09T23:58:27.407Z,1.63
